Time;durP1;ratioP1;P1;durP2;ratioP2;P2;SDS_P1;SDS_P2;PMS_P1;PMS_P2;Temp;Humidity;BMP_temperature;BMP_pressure;BME280_temperature;BME280_humidity;BME280_pressure;Samples;Min_cycle;Max_cycle;Signal;HPM_P1;HPM_P2
2022/12/22 03:25:55;;;;;;;481.17;207.97;;;;;;;;;;4996341;28;21334;-55
2022/12/22 03:28:23;;;;;;;613.93;255.50;;;;;;;;;;4993935;28;20272;-55
2022/12/22 03:30:53;;;;;;;356.00;155.63;;;;;;;;;;5001037;28;20385;-55
2022/12/22 03:33:19;;;;;;;538.03;222.93;;;;;;;;;;5003540;28;20247;-54
2022/12/22 03:35:45;;;;;;;406.43;174.87;;;;;;;;;;4990234;28;20227;-53
2022/12/22 03:38:11;;;;;;;525.53;220.07;;;;;;;;;;4987161;28;20445;-53
2022/12/22 03:40:37;;;;;;;608.90;257.70;;;;;;;;;;4995350;28;20298;-54
2022/12/22 03:48:39;;;;;;;609.40;249.57;;;;;;;;;;5020149;28;20219;-56
2022/12/22 03:51:05;;;;;;;346.07;152.30;;;;;;;;;;5004040;28;20238;-54
2022/12/22 03:53:31;;;;;;;446.53;186.87;;;;;;;;;;4997963;28;20295;-56
2022/12/22 03:55:57;;;;;;;423.67;181.10;;;;;;;;;;4993942;28;20219;-53
2022/12/22 03:58:23;;;;;;;570.63;239.07;;;;;;;;;;4994694;28;21859;-54
2022/12/22 04:00:49;;;;;;;493.50;209.60;;;;;;;;;;4990671;28;20675;-55
2022/12/22 04:03:16;;;;;;;462.00;195.67;;;;;;;;;;5012062;28;20424;-54
2022/12/22 04:05:43;;;;;;;627.07;261.40;;;;;;;;;;4998447;28;20223;-55
2022/12/22 04:08:09;;;;;;;512.77;211.50;;;;;;;;;;4990881;28;20262;-53
2022/12/22 04:13:20;;;;;;;488.77;203.37;;;;;;;;;;5000383;28;20255;-54
2022/12/22 04:15:46;;;;;;;546.57;219.47;;;;;;;;;;4998377;28;20216;-54
2022/12/22 04:18:12;;;;;;;630.13;262.97;;;;;;;;;;4995414;28;21449;-53
2022/12/22 04:20:38;;;;;;;650.97;275.70;;;;;;;;;;4988461;28;20273;-55
2022/12/22 04:23:04;;;;;;;386.97;168.60;;;;;;;;;;4989810;28;20208;-54
2022/12/22 04:25:31;;;;;;;532.37;222.53;;;;;;;;;;4998194;28;20395;-55
2022/12/22 04:27:57;;;;;;;582.53;238.43;;;;;;;;;;4992573;28;20297;-54
2022/12/22 04:30:23;;;;;;;520.53;210.87;;;;;;;;;;4977604;28;20232;-54
2022/12/22 04:32:49;;;;;;;542.70;222.77;;;;;;;;;;4994701;28;20229;-54
2022/12/22 04:35:15;;;;;;;550.67;225.93;;;;;;;;;;4936579;28;20220;-53
2022/12/22 04:37:41;;;;;;;498.27;203.67;;;;;;;;;;4995181;28;20591;-54
2022/12/22 04:40:07;;;;;;;427.73;171.53;;;;;;;;;;4999375;28;20895;-54
2022/12/22 04:42:34;;;;;;;586.47;249.70;;;;;;;;;;4987695;28;20227;-54
2022/12/22 04:45:00;;;;;;;524.10;217.20;;;;;;;;;;4984732;28;20713;-53
2022/12/22 04:47:26;;;;;;;528.23;216.17;;;;;;;;;;4997089;28;20243;-54
2022/12/22 04:49:54;;;;;;;552.03;226.30;;;;;;;;;;4998612;28;20584;-54
2022/12/22 04:52:20;;;;;;;441.67;183.37;;;;;;;;;;5000293;28;20342;-54
2022/12/22 04:54:46;;;;;;;517.27;211.67;;;;;;;;;;4991043;28;21652;-54
2022/12/22 04:57:12;;;;;;;414.10;174.43;;;;;;;;;;4994791;28;20223;-52
2022/12/22 04:59:38;;;;;;;495.13;205.67;;;;;;;;;;5012162;28;20266;-53
2022/12/22 05:02:04;;;;;;;453.40;179.20;;;;;;;;;;5015230;28;20675;-53
2022/12/22 05:04:31;;;;;;;590.30;240.67;;;;;;;;;;5002529;28;20215;-54
2022/12/22 05:06:57;;;;;;;564.10;230.00;;;;;;;;;;5003424;28;20644;-54
2022/12/22 05:09:23;;;;;;;554.90;216.07;;;;;;;;;;5009481;28;20254;-55
2022/12/22 05:11:49;;;;;;;383.37;166.67;;;;;;;;;;5008404;28;20243;-55
2022/12/22 05:14:15;;;;;;;463.13;182.13;;;;;;;;;;4996721;28;20216;-56
2022/12/22 05:16:41;;;;;;;663.53;279.57;;;;;;;;;;5007737;28;20376;-53
2022/12/22 05:19:08;;;;;;;354.73;151.17;;;;;;;;;;5011624;28;20274;-52
2022/12/22 05:21:34;;;;;;;596.43;239.43;;;;;;;;;;5010997;28;20216;-55
2022/12/22 05:24:00;;;;;;;417.17;171.63;;;;;;;;;;5005347;28;20212;-55
2022/12/22 05:26:26;;;;;;;492.23;206.30;;;;;;;;;;5012749;28;20239;-53
2022/12/22 05:28:52;;;;;;;407.53;172.33;;;;;;;;;;5007677;28;20262;-55
2022/12/22 05:31:20;;;;;;;564.00;231.80;;;;;;;;;;5013936;28;20318;-55
2022/12/22 05:33:47;;;;;;;575.07;234.30;;;;;;;;;;5011548;28;20231;-54
2022/12/22 05:36:13;;;;;;;471.93;188.97;;;;;;;;;;5004430;28;20277;-54
2022/12/22 05:38:39;;;;;;;515.23;216.33;;;;;;;;;;5014125;28;20417;-53
2022/12/22 05:41:06;;;;;;;342.60;152.23;;;;;;;;;;5018093;28;20752;-54
2022/12/22 05:43:33;;;;;;;564.27;230.60;;;;;;;;;;5013512;28;20203;-54
2022/12/22 05:46:08;;;;;;;346.43;156.70;;;;;;;;;;4991407;28;20188;-52
2022/12/22 05:48:34;;;;;;;484.43;197.97;;;;;;;;;;5008828;28;20219;-55
2022/12/22 05:51:00;;;;;;;507.90;206.03;;;;;;;;;;5006452;28;20591;-52
2022/12/22 05:53:27;;;;;;;498.13;198.30;;;;;;;;;;5006781;28;20227;-53
2022/12/22 05:55:53;;;;;;;514.43;208.30;;;;;;;;;;4997419;28;21572;-52
2022/12/22 05:58:19;;;;;;;558.47;221.60;;;;;;;;;;5012986;28;20187;-54
2022/12/22 06:00:45;;;;;;;626.67;250.20;;;;;;;;;;5014276;28;20227;-53
2022/12/22 06:03:11;;;;;;;476.73;199.47;;;;;;;;;;5006811;28;20224;-54
2022/12/22 06:05:37;;;;;;;572.10;223.20;;;;;;;;;;5015710;28;20212;-52
2022/12/22 06:08:03;;;;;;;360.93;157.80;;;;;;;;;;5017110;28;20241;-52
2022/12/22 06:10:29;;;;;;;536.37;222.80;;;;;;;;;;5019876;28;20257;-54
2022/12/22 06:12:55;;;;;;;432.53;177.57;;;;;;;;;;5030532;28;20887;-53
2022/12/22 06:15:21;;;;;;;439.93;181.93;;;;;;;;;;5010096;28;20262;-55
2022/12/22 06:17:47;;;;;;;636.90;262.33;;;;;;;;;;5004492;28;20235;-55
2022/12/22 06:20:14;;;;;;;797.27;351.47;;;;;;;;;;4971595;28;20252;-56
2022/12/22 06:22:40;;;;;;;646.87;259.23;;;;;;;;;;4977989;28;20208;-54
2022/12/22 06:25:06;;;;;;;508.13;212.13;;;;;;;;;;4968910;28;21141;-54
2022/12/22 06:27:32;;;;;;;636.33;274.93;;;;;;;;;;4970799;28;20779;-55
2022/12/22 06:29:58;;;;;;;833.63;351.17;;;;;;;;;;4986118;28;20290;-55
2022/12/22 06:32:24;;;;;;;678.07;273.93;;;;;;;;;;4985001;28;20216;-55
2022/12/22 06:34:50;;;;;;;500.90;201.20;;;;;;;;;;4990961;28;20461;-56
2022/12/22 06:37:16;;;;;;;565.37;241.50;;;;;;;;;;5007823;28;20290;-54
2022/12/22 06:39:43;;;;;;;739.73;304.10;;;;;;;;;;4987403;28;20325;-57
2022/12/22 06:44:55;;;;;;;603.97;237.67;;;;;;;;;;4993823;28;20581;-55
2022/12/22 06:47:21;;;;;;;462.93;188.23;;;;;;;;;;5011684;28;20580;-55
2022/12/22 06:49:47;;;;;;;506.50;214.70;;;;;;;;;;5007057;28;20192;-55
2022/12/22 06:52:13;;;;;;;314.33;159.67;;;;;;;;;;5020055;23;20691;-48
2022/12/22 06:54:39;;;;;;;534.30;233.63;;;;;;;;;;5014830;28;20263;-48
2022/12/22 06:57:05;;;;;;;436.83;208.43;;;;;;;;;;5007241;28;20225;-48
2022/12/22 06:59:31;;;;;;;329.57;160.30;;;;;;;;;;5017230;28;20581;-48
2022/12/22 07:01:57;;;;;;;423.20;200.20;;;;;;;;;;5019737;28;20696;-47
2022/12/22 07:04:23;;;;;;;412.67;192.77;;;;;;;;;;5020623;28;20207;-48
2022/12/22 07:06:49;;;;;;;466.23;214.80;;;;;;;;;;5012605;28;20311;-47
2022/12/22 07:09:15;;;;;;;345.50;162.10;;;;;;;;;;5008804;28;20243;-48
2022/12/22 07:11:41;;;;;;;439.60;196.83;;;;;;;;;;5016034;28;20208;-47
2022/12/22 07:14:08;;;;;;;418.83;183.67;;;;;;;;;;5017565;28;20658;-48
2022/12/22 07:16:34;;;;;;;369.17;168.60;;;;;;;;;;5014643;28;20202;-48
2022/12/22 07:19:00;;;;;;;455.93;205.73;;;;;;;;;;5020412;28;20255;-48
2022/12/22 07:21:26;;;;;;;343.17;162.67;;;;;;;;;;5021926;28;20208;-48
2022/12/22 07:23:51;;;;;;;538.50;254.50;;;;;;;;;;5016407;28;20217;-48
2022/12/22 07:26:17;;;;;;;475.90;215.53;;;;;;;;;;5015157;28;20216;-48
2022/12/22 07:28:44;;;;;;;526.67;229.10;;;;;;;;;;5024616;28;20263;-48
2022/12/22 07:31:10;;;;;;;361.93;167.10;;;;;;;;;;5018794;28;20177;-47
2022/12/22 07:33:37;;;;;;;480.03;214.63;;;;;;;;;;5020622;28;20272;-48
2022/12/22 07:36:04;;;;;;;533.70;236.43;;;;;;;;;;5016759;28;20709;-48
2022/12/22 07:38:37;;;;;;;411.50;186.27;;;;;;;;;;5020261;28;20220;-48
2022/12/22 07:42:43;;;;;;;386.83;170.03;;;;;;;;;;5017795;28;20295;-47
2022/12/22 07:43:50;;;;;;;424.23;197.57;;;;;;;;;;5016622;28;20243;-48
2022/12/22 07:46:15;;;;;;;342.30;163.93;;;;;;;;;;5026559;28;20208;-48
2022/12/22 07:51:26;;;;;;;419.30;194.07;;;;;;;;;;5002174;28;20343;-47
2022/12/22 07:53:52;;;;;;;459.87;205.87;;;;;;;;;;5016976;28;20275;-48
2022/12/22 07:56:18;;;;;;;457.47;210.50;;;;;;;;;;5023502;28;20679;-48
2022/12/22 07:58:44;;;;;;;498.27;228.48;;;;;;;;;;5016843;28;20500;-48
2022/12/22 08:01:10;;;;;;;535.73;246.00;;;;;;;;;;4998440;28;20557;-48
2022/12/22 08:03:36;;;;;;;503.90;224.53;;;;;;;;;;5006313;28;20226;-47
2022/12/22 08:06:03;;;;;;;596.87;272.80;;;;;;;;;;4999534;28;20315;-48
2022/12/22 08:08:29;;;;;;;401.27;190.10;;;;;;;;;;4999456;28;20300;-48
2022/12/22 08:10:55;;;;;;;619.40;282.80;;;;;;;;;;5001645;28;20296;-48
2022/12/22 08:13:21;;;;;;;520.80;240.07;;;;;;;;;;5036454;28;20210;-48
2022/12/22 08:15:47;;;;;;;539.83;246.90;;;;;;;;;;5026139;28;20204;-47
2022/12/22 08:18:13;;;;;;;488.87;217.17;;;;;;;;;;5037059;28;20208;-47
2022/12/22 08:20:39;;;;;;;545.70;243.43;;;;;;;;;;5020599;28;20212;-46
2022/12/22 08:23:05;;;;;;;451.50;208.20;;;;;;;;;;5015247;28;20842;-47
2022/12/22 08:25:32;;;;;;;559.67;247.07;;;;;;;;;;5025545;28;20177;-47
2022/12/22 08:27:58;;;;;;;501.57;223.67;;;;;;;;;;5025326;28;20180;-46
2022/12/22 08:30:24;;;;;;;379.10;171.23;;;;;;;;;;5031606;28;20212;-46
2022/12/22 08:32:50;;;;;;;458.93;200.63;;;;;;;;;;5023031;28;20220;-46
2022/12/22 08:35:16;;;;;;;413.23;187.83;;;;;;;;;;5022464;28;20204;-49
2022/12/22 08:37:44;;;;;;;553.10;246.17;;;;;;;;;;5031106;28;20196;-48
2022/12/22 08:40:16;;;;;;;407.87;182.17;;;;;;;;;;5027224;28;20168;-48
2022/12/22 08:42:42;;;;;;;467.60;211.93;;;;;;;;;;5029904;28;20211;-48
2022/12/22 08:45:10;;;;;;;337.17;158.13;;;;;;;;;;5025171;28;20205;-46
2022/12/22 08:47:36;;;;;;;582.77;259.30;;;;;;;;;;5040212;28;20298;-46
2022/12/22 08:50:02;;;;;;;583.63;257.33;;;;;;;;;;5037241;28;20234;-46
2022/12/22 08:52:28;;;;;;;600.00;268.10;;;;;;;;;;5041437;28;20187;-46
2022/12/22 08:54:54;;;;;;;489.77;237.97;;;;;;;;;;5022754;28;20593;-49
2022/12/22 08:57:20;;;;;;;429.87;196.07;;;;;;;;;;5025307;28;20220;-48
2022/12/22 08:59:47;;;;;;;577.47;262.17;;;;;;;;;;5025744;28;20878;-48
2022/12/22 09:02:13;;;;;;;405.33;189.70;;;;;;;;;;5018274;28;20209;-48
2022/12/22 09:04:39;;;;;;;461.70;212.90;;;;;;;;;;5011025;28;20288;-49
2022/12/22 09:07:05;;;;;;;573.20;262.33;;;;;;;;;;5018097;28;20271;-49
2022/12/22 09:09:32;;;;;;;392.17;180.93;;;;;;;;;;5020396;28;20679;-48
2022/12/22 09:11:58;;;;;;;518.43;244.53;;;;;;;;;;5018786;28;20658;-49
2022/12/22 09:14:24;;;;;;;422.97;198.87;;;;;;;;;;5014999;28;20240;-48
2022/12/22 09:16:50;;;;;;;616.97;283.10;;;;;;;;;;5014573;28;20683;-49
2022/12/22 09:19:17;;;;;;;551.70;249.57;;;;;;;;;;5010919;28;20275;-49
2022/12/22 09:21:43;;;;;;;662.43;300.43;;;;;;;;;;5017568;28;20625;-48
2022/12/22 09:24:10;;;;;;;411.63;188.17;;;;;;;;;;5021269;28;20587;-48
2022/12/22 09:26:36;;;;;;;468.37;210.73;;;;;;;;;;5016497;28;20592;-48
2022/12/22 09:29:02;;;;;;;535.90;246.97;;;;;;;;;;5008875;28;20551;-48
2022/12/22 09:31:28;;;;;;;451.40;197.17;;;;;;;;;;5018951;28;20263;-48
2022/12/22 09:33:54;;;;;;;603.37;273.67;;;;;;;;;;5007444;28;20677;-48
2022/12/22 09:36:22;;;;;;;472.63;204.57;;;;;;;;;;5018140;28;20226;-48
2022/12/22 09:38:48;;;;;;;561.90;253.07;;;;;;;;;;5013998;28;20212;-49
2022/12/22 09:41:16;;;;;;;494.37;229.60;;;;;;;;;;5012698;28;20303;-48
2022/12/22 09:43:42;;;;;;;661.63;304.43;;;;;;;;;;5012023;28;20262;-49
2022/12/22 09:46:15;;;;;;;676.57;320.20;;;;;;;;;;5010747;28;20183;-49
2022/12/22 09:48:41;;;;;;;528.67;238.20;;;;;;;;;;5008667;28;20551;-48
2022/12/22 09:51:11;;;;;;;560.23;248.93;;;;;;;;;;5013381;28;20212;-50
2022/12/22 09:53:37;;;;;;;494.57;233.07;;;;;;;;;;5019839;28;20322;-49
2022/12/22 09:56:03;;;;;;;579.60;257.87;;;;;;;;;;5007459;28;20300;-49
2022/12/22 09:58:31;;;;;;;542.53;246.93;;;;;;;;;;5013462;28;20223;-48
2022/12/22 10:01:00;;;;;;;559.40;252.80;;;;;;;;;;5011744;28;20275;-49
2022/12/22 10:03:33;;;;;;;595.03;273.53;;;;;;;;;;5011949;28;20719;-49
2022/12/22 10:06:09;;;;;;;486.07;213.47;;;;;;;;;;5015880;28;20208;-49
2022/12/22 10:08:36;;;;;;;533.37;238.43;;;;;;;;;;5009489;28;20227;-49
2022/12/22 10:11:03;;;;;;;619.73;285.03;;;;;;;;;;5008453;28;20306;-49
2022/12/22 10:13:29;;;;;;;575.50;264.53;;;;;;;;;;5017018;28;20550;-49
2022/12/22 10:15:55;;;;;;;621.57;285.23;;;;;;;;;;5019313;28;20208;-49
2022/12/22 10:18:22;;;;;;;581.77;260.67;;;;;;;;;;5004922;28;20216;-48
2022/12/22 10:21:03;;;;;;;583.70;266.33;;;;;;;;;;5019084;28;20671;-49
2022/12/22 10:23:30;;;;;;;625.13;288.67;;;;;;;;;;5016988;28;20306;-49
2022/12/22 10:25:56;;;;;;;592.10;268.50;;;;;;;;;;5012097;28;20196;-48
2022/12/22 10:28:23;;;;;;;526.07;246.50;;;;;;;;;;5011892;28;20203;-48
2022/12/22 10:30:49;;;;;;;465.07;215.07;;;;;;;;;;5012213;28;20228;-48
2022/12/22 10:33:16;;;;;;;527.07;245.20;;;;;;;;;;5014457;28;20687;-49
2022/12/22 10:35:45;;;;;;;480.53;220.13;;;;;;;;;;5018354;28;20204;-49
2022/12/22 10:38:17;;;;;;;491.47;224.77;;;;;;;;;;5017495;28;20646;-48
2022/12/22 10:40:44;;;;;;;531.07;251.07;;;;;;;;;;5014317;28;20463;-50
2022/12/22 10:43:16;;;;;;;499.27;233.27;;;;;;;;;;5015901;28;20200;-47
2022/12/22 10:45:46;;;;;;;519.87;242.67;;;;;;;;;;5018405;28;20297;-48
2022/12/22 10:48:12;;;;;;;529.17;245.57;;;;;;;;;;5015028;28;20243;-47
2022/12/22 10:50:44;;;;;;;518.03;238.23;;;;;;;;;;5012153;28;20212;-50
2022/12/22 10:53:10;;;;;;;653.90;298.63;;;;;;;;;;5010920;28;20337;-49
2022/12/22 10:55:38;;;;;;;529.20;245.60;;;;;;;;;;5007269;28;20176;-47
2022/12/22 10:58:10;;;;;;;573.03;265.13;;;;;;;;;;5016740;28;20242;-47
2022/12/22 11:00:40;;;;;;;577.97;265.63;;;;;;;;;;5018943;28;20212;-48
2022/12/22 11:03:06;;;;;;;622.73;279.50;;;;;;;;;;5015726;28;20212;-49
2022/12/22 11:05:33;;;;;;;401.00;187.50;;;;;;;;;;5028392;28;20235;-49
2022/12/22 11:08:12;;;;;;;511.50;240.60;;;;;;;;;;5015940;28;20281;-48
2022/12/22 11:10:40;;;;;;;465.93;224.53;;;;;;;;;;5015603;28;20241;-49
2022/12/22 11:13:09;;;;;;;506.00;234.20;;;;;;;;;;5007186;28;20193;-49
2022/12/22 11:15:39;;;;;;;416.93;191.10;;;;;;;;;;5015695;28;20242;-48
2022/12/22 11:18:11;;;;;;;526.83;246.60;;;;;;;;;;5021887;28;20235;-48
2022/12/22 11:20:46;;;;;;;517.67;236.67;;;;;;;;;;5017713;28;20263;-49
2022/12/22 11:23:25;;;;;;;497.37;229.03;;;;;;;;;;5021954;28;20339;-49
2022/12/22 11:26:03;;;;;;;501.53;224.17;;;;;;;;;;5022242;28;20220;-49
2022/12/22 11:28:55;;;;;;;640.67;298.87;;;;;;;;;;5015559;28;20184;-48
2022/12/22 11:31:27;;;;;;;378.70;173.53;;;;;;;;;;5015558;28;20274;-48
2022/12/22 11:33:56;;;;;;;511.10;245.57;;;;;;;;;;5015600;28;20314;-48
2022/12/22 11:36:27;;;;;;;414.83;195.57;;;;;;;;;;5006424;28;20264;-48
2022/12/22 11:39:13;;;;;;;524.10;240.60;;;;;;;;;;4998064;28;20247;-48
2022/12/22 11:41:56;;;;;;;385.77;180.03;;;;;;;;;;5006849;28;20588;-48
2022/12/22 11:45:01;;;;;;;503.00;222.97;;;;;;;;;;5007180;28;20219;-49
2022/12/22 11:47:47;;;;;;;554.27;245.83;;;;;;;;;;4999609;28;20646;-49
2022/12/22 11:50:31;;;;;;;418.17;197.60;;;;;;;;;;4986909;28;20213;-49
2022/12/22 11:52:57;;;;;;;392.53;176.83;;;;;;;;;;5009795;28;20274;-49
2022/12/22 11:55:33;;;;;;;540.63;244.93;;;;;;;;;;5012646;28;20189;-49
2022/12/22 11:58:11;;;;;;;492.37;224.20;;;;;;;;;;5009612;28;20225;-49
2022/12/22 12:00:42;;;;;;;443.60;199.70;;;;;;;;;;5006946;28;20199;-48
2022/12/22 12:03:12;;;;;;;576.50;253.07;;;;;;;;;;5020466;28;20258;-49
2022/12/22 12:05:42;;;;;;;509.73;242.00;;;;;;;;;;5020533;28;20255;-48
2022/12/22 12:08:14;;;;;;;541.30;254.70;;;;;;;;;;5018622;28;20656;-49
2022/12/22 12:10:45;;;;;;;684.47;322.17;;;;;;;;;;5010901;28;20181;-47
2022/12/22 12:13:25;;;;;;;515.17;235.90;;;;;;;;;;5011691;28;20191;-47
2022/12/22 12:15:57;;;;;;;434.17;202.00;;;;;;;;;;5017867;28;20267;-48
2022/12/22 12:18:42;;;;;;;562.03;253.00;;;;;;;;;;5019203;28;20656;-48
2022/12/22 12:21:17;;;;;;;558.47;263.07;;;;;;;;;;5025871;28;20648;-47
2022/12/22 12:23:55;;;;;;;506.60;238.77;;;;;;;;;;5016702;28;20227;-47
2022/12/22 12:26:41;;;;;;;518.50;240.60;;;;;;;;;;5019279;28;20247;-47
2022/12/22 12:29:15;;;;;;;508.73;232.57;;;;;;;;;;5017362;28;20293;-49
2022/12/22 12:31:47;;;;;;;496.23;235.03;;;;;;;;;;5015208;28;20183;-47
2022/12/22 12:34:16;;;;;;;569.27;263.87;;;;;;;;;;5017777;28;20209;-47
2022/12/22 12:36:48;;;;;;;517.67;240.23;;;;;;;;;;5017854;28;20226;-47
2022/12/22 12:39:21;;;;;;;562.47;263.37;;;;;;;;;;5017058;28;20216;-48
2022/12/22 12:41:58;;;;;;;655.23;304.50;;;;;;;;;;5008025;28;20331;-48
2022/12/22 12:44:31;;;;;;;548.27;260.87;;;;;;;;;;5012724;28;20223;-48
2022/12/22 12:47:04;;;;;;;478.57;220.50;;;;;;;;;;5015453;28;20652;-48
2022/12/22 12:49:33;;;;;;;525.27;242.60;;;;;;;;;;5014908;28;20179;-49
2022/12/22 12:52:05;;;;;;;670.97;284.63;;;;;;;;;;5033643;23;20231;-54
2022/12/22 12:54:31;;;;;;;635.73;254.93;;;;;;;;;;5016816;28;20428;-54
2022/12/22 12:56:59;;;;;;;477.83;198.10;;;;;;;;;;5034886;28;20602;-55
2022/12/22 12:59:37;;;;;;;548.07;219.40;;;;;;;;;;5018916;28;20564;-55
2022/12/22 13:02:03;;;;;;;529.93;214.73;;;;;;;;;;5021588;28;20219;-54
2022/12/22 13:05:01;;;;;;;525.47;215.37;;;;;;;;;;5038492;28;20215;-54
2022/12/22 13:07:46;;;;;;;570.10;225.27;;;;;;;;;;4994885;28;20219;-55
2022/12/22 13:10:25;;;;;;;493.53;199.80;;;;;;;;;;5035477;28;20226;-55
2022/12/22 13:12:53;;;;;;;539.87;218.03;;;;;;;;;;5025783;28;20313;-54
2022/12/22 13:15:29;;;;;;;540.30;219.27;;;;;;;;;;5042183;28;20211;-55
2022/12/22 13:17:55;;;;;;;578.47;229.83;;;;;;;;;;5040461;28;20347;-54
2022/12/22 13:20:27;;;;;;;496.33;204.80;;;;;;;;;;5043426;28;20215;-55
2022/12/22 13:22:54;;;;;;;465.63;196.10;;;;;;;;;;5039849;28;20230;-54
2022/12/22 13:25:20;;;;;;;497.87;211.47;;;;;;;;;;5044191;28;20749;-55
2022/12/22 13:27:47;;;;;;;459.33;193.77;;;;;;;;;;5023179;28;20222;-55
2022/12/22 13:30:15;;;;;;;588.43;245.77;;;;;;;;;;5036544;28;20221;-54
2022/12/22 13:32:42;;;;;;;426.43;179.87;;;;;;;;;;5038788;28;20302;-54
2022/12/22 13:35:29;;;;;;;559.70;229.30;;;;;;;;;;5043694;28;20263;-55
2022/12/22 13:37:56;;;;;;;537.10;215.37;;;;;;;;;;5026358;28;20222;-55
2022/12/22 13:40:24;;;;;;;574.63;236.13;;;;;;;;;;5043236;28;20178;-54
2022/12/22 13:42:52;;;;;;;561.77;239.50;;;;;;;;;;5038007;28;20312;-54
2022/12/22 13:45:20;;;;;;;542.87;223.00;;;;;;;;;;5042900;28;20222;-55
2022/12/22 13:47:47;;;;;;;492.33;204.93;;;;;;;;;;5043515;28;20214;-55
2022/12/22 13:50:17;;;;;;;501.77;209.40;;;;;;;;;;5040949;28;20233;-54
2022/12/22 13:52:43;;;;;;;528.53;214.43;;;;;;;;;;5017800;28;20242;-54
2022/12/22 13:55:18;;;;;;;506.50;207.37;;;;;;;;;;5039073;28;20539;-55
2022/12/22 13:57:44;;;;;;;574.67;226.67;;;;;;;;;;5039158;28;20861;-55
2022/12/22 14:00:17;;;;;;;426.67;184.50;;;;;;;;;;5023901;28;20219;-54
2022/12/22 14:02:44;;;;;;;455.80;187.40;;;;;;;;;;5037088;28;20422;-54
2022/12/22 14:05:11;;;;;;;438.53;184.07;;;;;;;;;;5042477;28;20567;-55
2022/12/22 14:07:37;;;;;;;545.57;222.70;;;;;;;;;;5043103;28;20207;-54
2022/12/22 14:10:04;;;;;;;525.20;212.20;;;;;;;;;;5038216;28;20222;-55
2022/12/22 14:12:38;;;;;;;569.33;224.73;;;;;;;;;;5039757;28;20373;-55
2022/12/22 14:15:08;;;;;;;461.00;194.90;;;;;;;;;;5041769;28;20269;-54
2022/12/22 14:17:36;;;;;;;568.07;236.37;;;;;;;;;;5039745;28;20227;-55
2022/12/22 14:20:12;;;;;;;555.77;220.47;;;;;;;;;;5057196;28;20221;-55
2022/12/22 14:22:43;;;;;;;557.57;231.83;;;;;;;;;;5043856;28;20263;-55
2022/12/22 14:25:13;;;;;;;463.00;192.33;;;;;;;;;;5044872;28;20270;-54
2022/12/22 14:27:41;;;;;;;506.10;209.67;;;;;;;;;;5045920;28;20207;-55
2022/12/22 14:30:18;;;;;;;526.70;221.60;;;;;;;;;;5045277;28;20259;-55
2022/12/22 14:32:46;;;;;;;481.73;203.60;;;;;;;;;;5053559;28;20219;-55
2022/12/22 14:35:16;;;;;;;564.60;224.50;;;;;;;;;;5048831;28;20662;-54
2022/12/22 14:37:42;;;;;;;462.77;196.97;;;;;;;;;;5042208;28;20203;-54
2022/12/22 14:40:14;;;;;;;473.10;195.43;;;;;;;;;;5043739;28;20227;-55
2022/12/22 14:42:42;;;;;;;439.77;185.17;;;;;;;;;;5047687;28;20219;-54
2022/12/22 14:45:15;;;;;;;551.70;226.67;;;;;;;;;;5028306;28;20211;-54
2022/12/22 14:47:41;;;;;;;503.13;210.83;;;;;;;;;;5047373;28;20223;-54
2022/12/22 14:50:21;;;;;;;534.03;218.90;;;;;;;;;;5028649;28;20296;-55
2022/12/22 14:52:52;;;;;;;390.80;161.40;;;;;;;;;;5047288;28;20420;-54
2022/12/22 14:55:36;;;;;;;545.10;229.07;;;;;;;;;;5046718;28;20722;-55
2022/12/22 14:58:04;;;;;;;502.83;214.50;;;;;;;;;;5049047;28;20247;-54
2022/12/22 15:00:32;;;;;;;586.57;229.53;;;;;;;;;;5045435;28;20363;-54
2022/12/22 15:03:06;;;;;;;423.90;173.27;;;;;;;;;;5027169;28;20313;-54
2022/12/22 15:05:36;;;;;;;484.70;199.63;;;;;;;;;;5048927;28;20272;-55
2022/12/22 15:08:03;;;;;;;522.47;210.37;;;;;;;;;;5029110;28;20250;-55
2022/12/22 15:10:34;;;;;;;568.53;225.20;;;;;;;;;;5043405;28;20214;-55
2022/12/22 15:13:03;;;;;;;449.07;191.47;;;;;;;;;;5046636;28;20769;-55
2022/12/22 15:15:30;;;;;;;487.80;200.77;;;;;;;;;;5042642;28;20203;-54
2022/12/22 15:17:59;;;;;;;430.53;180.87;;;;;;;;;;5042168;28;20530;-54
2022/12/22 15:20:26;;;;;;;529.60;213.57;;;;;;;;;;5037108;28;20215;-55
2022/12/22 15:22:52;;;;;;;717.43;305.87;;;;;;;;;;4998492;28;20951;-55
2022/12/22 15:25:20;;;;;;;679.93;290.70;;;;;;;;;;5008934;28;20230;-55
2022/12/22 15:27:51;;;;;;;622.93;266.27;;;;;;;;;;4994919;28;20215;-55
2022/12/22 15:30:19;;;;;;;671.47;286.33;;;;;;;;;;4984839;28;20348;-55
2022/12/22 15:32:46;;;;;;;692.03;292.87;;;;;;;;;;4994632;28;20207;-55
2022/12/22 15:35:20;;;;;;;687.73;283.03;;;;;;;;;;4995924;28;20249;-55
2022/12/22 15:37:46;;;;;;;673.17;284.93;;;;;;;;;;5004655;28;20218;-55
2022/12/22 15:40:17;;;;;;;560.83;234.93;;;;;;;;;;4997356;28;20961;-55
2022/12/22 15:42:42;;;;;;;644.37;266.30;;;;;;;;;;4987404;28;21403;-55
2022/12/22 15:45:09;;;;;;;669.73;277.93;;;;;;;;;;5008720;28;20294;-56
2022/12/22 15:47:35;;;;;;;702.73;302.47;;;;;;;;;;5003545;28;20219;-55
2022/12/22 15:50:04;;;;;;;749.27;313.23;;;;;;;;;;4996829;28;20219;-55
2022/12/22 15:52:31;;;;;;;623.00;249.67;;;;;;;;;;5014718;28;20276;-55
2022/12/22 15:54:57;;;;;;;575.07;239.03;;;;;;;;;;5015844;28;20226;-54
2022/12/22 15:57:23;;;;;;;499.03;203.03;;;;;;;;;;4987592;28;20258;-55
2022/12/22 15:59:49;;;;;;;508.23;209.93;;;;;;;;;;5003584;28;20834;-55
2022/12/22 16:02:15;;;;;;;687.87;289.20;;;;;;;;;;4979469;28;20720;-55
2022/12/22 16:04:41;;;;;;;664.93;279.03;;;;;;;;;;4990344;28;20290;-55
2022/12/22 16:07:10;;;;;;;692.73;298.53;;;;;;;;;;4998833;28;20331;-54
2022/12/22 16:09:40;;;;;;;581.77;236.57;;;;;;;;;;5010444;28;20656;-54
2022/12/22 16:12:13;;;;;;;559.33;237.13;;;;;;;;;;5005011;28;20212;-54
2022/12/22 16:14:40;;;;;;;530.53;220.30;;;;;;;;;;5013174;28;20214;-55
2022/12/22 16:17:13;;;;;;;666.80;288.17;;;;;;;;;;4988554;28;20796;-54
2022/12/22 16:19:48;;;;;;;618.83;257.27;;;;;;;;;;4999259;28;20219;-54
2022/12/22 16:22:16;;;;;;;560.90;235.83;;;;;;;;;;4996770;28;20990;-54
2022/12/22 16:24:44;;;;;;;698.63;291.63;;;;;;;;;;5007473;28;20302;-55
2022/12/22 16:27:11;;;;;;;678.03;287.90;;;;;;;;;;4998722;28;21027;-53
2022/12/22 16:29:38;;;;;;;596.10;248.17;;;;;;;;;;5004233;28;20585;-53
2022/12/22 16:32:21;;;;;;;666.87;276.87;;;;;;;;;;4999083;28;20208;-53
2022/12/22 16:34:48;;;;;;;650.03;269.90;;;;;;;;;;4999283;28;20294;-53
2022/12/22 16:37:14;;;;;;;553.37;228.63;;;;;;;;;;5012126;28;20204;-53
2022/12/22 16:39:40;;;;;;;669.03;289.67;;;;;;;;;;4982590;28;20752;-53
2022/12/22 16:42:12;;;;;;;653.03;280.73;;;;;;;;;;4996529;28;20629;-53
2022/12/22 16:44:38;;;;;;;613.17;249.67;;;;;;;;;;4975366;28;20744;-54
2022/12/22 16:47:04;;;;;;;625.20;259.07;;;;;;;;;;5002650;28;20675;-54
2022/12/22 16:49:31;;;;;;;564.63;240.13;;;;;;;;;;5011702;28;20265;-53
2022/12/22 16:51:57;;;;;;;607.27;258.50;;;;;;;;;;5010414;28;20849;-54
2022/12/22 16:54:23;;;;;;;641.23;274.13;;;;;;;;;;4988779;28;20563;-54
2022/12/22 16:56:50;;;;;;;648.93;270.60;;;;;;;;;;5003505;28;20723;-54
2022/12/22 16:59:17;;;;;;;665.10;287.77;;;;;;;;;;5008316;28;20218;-54
2022/12/22 17:01:53;;;;;;;651.47;269.57;;;;;;;;;;5000717;28;20271;-54
2022/12/22 17:04:21;;;;;;;637.07;269.87;;;;;;;;;;5000824;28;20217;-54
2022/12/22 17:06:48;;;;;;;607.40;262.83;;;;;;;;;;5015169;28;20211;-54
2022/12/22 17:09:16;;;;;;;686.53;272.43;;;;;;;;;;4993728;28;20223;-54
2022/12/22 17:11:44;;;;;;;596.10;230.33;;;;;;;;;;5017580;28;21842;-53
2022/12/22 17:14:21;;;;;;;456.73;180.50;;;;;;;;;;5032328;28;20670;-54
2022/12/22 17:16:47;;;;;;;620.27;246.13;;;;;;;;;;5016565;28;20202;-53
2022/12/22 17:19:14;;;;;;;651.90;261.93;;;;;;;;;;5033255;28;20215;-53
2022/12/22 17:21:40;;;;;;;531.77;208.93;;;;;;;;;;5018421;28;20844;-53
2022/12/22 17:24:06;;;;;;;708.40;314.40;;;;;;;;;;5029180;28;20260;-54
2022/12/22 17:26:34;;;;;;;646.20;261.70;;;;;;;;;;5022327;28;21124;-53
2022/12/22 17:29:00;;;;;;;637.90;254.00;;;;;;;;;;4999374;28;20215;-54
2022/12/22 17:31:27;;;;;;;524.70;208.30;;;;;;;;;;5009991;28;20326;-53
2022/12/22 17:33:53;;;;;;;531.60;220.87;;;;;;;;;;5029850;28;20329;-53
2022/12/22 17:36:24;;;;;;;586.47;245.07;;;;;;;;;;5030683;28;20249;-53
2022/12/22 17:38:51;;;;;;;542.00;234.30;;;;;;;;;;5026969;28;20218;-53